sensor_id;sensor_type;location;lat;lon;timestamp;P1;durP1;ratioP1;P2;durP2;ratioP2
21326;SDS011;10822;51.532;6.770;2023-04-16T00:00:56;12.75;;;6.20;;
21326;SDS011;10822;51.532;6.770;2023-04-16T00:03:22;12.75;;;6.55;;
21326;SDS011;10822;51.532;6.770;2023-04-16T00:05:48;13.25;;;6.63;;
21326;SDS011;10822;51.532;6.770;2023-04-16T00:08:14;15.48;;;7.07;;
21326;SDS011;10822;51.532;6.770;2023-04-16T00:10:41;13.90;;;6.55;;
21326;SDS011;10822;51.532;6.770;2023-04-16T00:13:06;14.65;;;6.72;;
21326;SDS011;10822;51.532;6.770;2023-04-16T00:15:32;11.13;;;6.90;;
21326;SDS011;10822;51.532;6.770;2023-04-16T00:17:58;13.55;;;6.80;;
21326;SDS011;10822;51.532;6.770;2023-04-16T00:20:24;14.43;;;6.70;;
21326;SDS011;10822;51.532;6.770;2023-04-16T00:22:50;16.63;;;6.80;;
21326;SDS011;10822;51.532;6.770;2023-04-16T00:25:16;14.07;;;6.72;;
21326;SDS011;10822;51.532;6.770;2023-04-16T00:27:42;13.75;;;7.15;;
21326;SDS011;10822;51.532;6.770;2023-04-16T00:30:08;11.82;;;6.15;;
21326;SDS011;10822;51.532;6.770;2023-04-16T00:32:34;13.77;;;6.72;;
21326;SDS011;10822;51.532;6.770;2023-04-16T00:35:01;15.15;;;6.85;;
21326;SDS011;10822;51.532;6.770;2023-04-16T00:37:27;16.55;;;6.60;;
21326;SDS011;10822;51.532;6.770;2023-04-16T00:39:53;10.35;;;5.88;;
21326;SDS011;10822;51.532;6.770;2023-04-16T00:42:18;12.55;;;6.50;;
21326;SDS011;10822;51.532;6.770;2023-04-16T00:44:44;15.02;;;6.68;;
21326;SDS011;10822;51.532;6.770;2023-04-16T00:47:10;15.57;;;6.25;;
21326;SDS011;10822;51.532;6.770;2023-04-16T00:49:36;15.88;;;7.15;;
21326;SDS011;10822;51.532;6.770;2023-04-16T00:52:02;15.25;;;6.75;;
21326;SDS011;10822;51.532;6.770;2023-04-16T00:54:29;21.67;;;8.25;;
21326;SDS011;10822;51.532;6.770;2023-04-16T00:56:56;12.52;;;6.82;;
21326;SDS011;10822;51.532;6.770;2023-04-16T00:59:23;13.20;;;6.75;;
21326;SDS011;10822;51.532;6.770;2023-04-16T01:01:49;19.25;;;7.38;;
21326;SDS011;10822;51.532;6.770;2023-04-16T01:04:15;17.45;;;7.95;;
21326;SDS011;10822;51.532;6.770;2023-04-16T01:06:41;18.10;;;8.18;;
21326;SDS011;10822;51.532;6.770;2023-04-16T01:09:08;12.73;;;7.60;;
21326;SDS011;10822;51.532;6.770;2023-04-16T01:11:35;21.70;;;8.57;;
21326;SDS011;10822;51.532;6.770;2023-04-16T01:14:01;20.90;;;8.68;;
21326;SDS011;10822;51.532;6.770;2023-04-16T01:16:27;18.02;;;7.90;;
21326;SDS011;10822;51.532;6.770;2023-04-16T01:18:53;17.08;;;7.93;;
21326;SDS011;10822;51.532;6.770;2023-04-16T01:21:19;17.83;;;8.20;;
21326;SDS011;10822;51.532;6.770;2023-04-16T01:23:45;17.20;;;8.15;;
21326;SDS011;10822;51.532;6.770;2023-04-16T01:26:11;20.20;;;8.68;;
21326;SDS011;10822;51.532;6.770;2023-04-16T01:28:38;18.20;;;8.68;;
21326;SDS011;10822;51.532;6.770;2023-04-16T01:31:05;24.55;;;9.00;;
21326;SDS011;10822;51.532;6.770;2023-04-16T01:33:31;20.13;;;8.50;;
21326;SDS011;10822;51.532;6.770;2023-04-16T01:35:57;22.88;;;8.90;;
21326;SDS011;10822;51.532;6.770;2023-04-16T01:38:23;19.92;;;8.77;;
21326;SDS011;10822;51.532;6.770;2023-04-16T01:40:48;16.05;;;8.32;;
21326;SDS011;10822;51.532;6.770;2023-04-16T01:43:14;20.60;;;9.00;;
21326;SDS011;10822;51.532;6.770;2023-04-16T01:45:41;22.55;;;9.70;;
21326;SDS011;10822;51.532;6.770;2023-04-16T01:48:07;22.10;;;8.70;;
21326;SDS011;10822;51.532;6.770;2023-04-16T01:50:33;28.17;;;10.65;;
21326;SDS011;10822;51.532;6.770;2023-04-16T01:52:59;18.35;;;9.57;;
21326;SDS011;10822;51.532;6.770;2023-04-16T01:55:28;22.42;;;9.40;;
21326;SDS011;10822;51.532;6.770;2023-04-16T01:57:54;20.13;;;10.13;;
21326;SDS011;10822;51.532;6.770;2023-04-16T02:00:20;19.05;;;10.05;;
21326;SDS011;10822;51.532;6.770;2023-04-16T02:02:46;21.77;;;10.75;;
21326;SDS011;10822;51.532;6.770;2023-04-16T02:05:13;25.20;;;11.05;;
21326;SDS011;10822;51.532;6.770;2023-04-16T02:07:39;23.50;;;10.38;;
21326;SDS011;10822;51.532;6.770;2023-04-16T02:10:05;19.73;;;10.52;;
21326;SDS011;10822;51.532;6.770;2023-04-16T02:12:32;20.77;;;10.48;;
21326;SDS011;10822;51.532;6.770;2023-04-16T02:14:58;21.55;;;10.68;;
21326;SDS011;10822;51.532;6.770;2023-04-16T02:17:24;22.48;;;10.95;;
21326;SDS011;10822;51.532;6.770;2023-04-16T02:19:50;24.15;;;11.65;;
21326;SDS011;10822;51.532;6.770;2023-04-16T02:22:16;18.67;;;10.68;;
21326;SDS011;10822;51.532;6.770;2023-04-16T02:24:42;20.55;;;11.07;;
21326;SDS011;10822;51.532;6.770;2023-04-16T02:27:08;20.98;;;11.32;;
21326;SDS011;10822;51.532;6.770;2023-04-16T02:29:35;24.65;;;11.07;;
21326;SDS011;10822;51.532;6.770;2023-04-16T02:32:01;22.90;;;11.48;;
21326;SDS011;10822;51.532;6.770;2023-04-16T02:34:27;19.50;;;11.27;;
21326;SDS011;10822;51.532;6.770;2023-04-16T02:36:53;25.70;;;12.55;;
21326;SDS011;10822;51.532;6.770;2023-04-16T02:39:19;23.73;;;12.40;;
21326;SDS011;10822;51.532;6.770;2023-04-16T02:41:45;24.00;;;12.48;;
21326;SDS011;10822;51.532;6.770;2023-04-16T02:44:11;20.77;;;11.00;;
21326;SDS011;10822;51.532;6.770;2023-04-16T02:46:37;22.02;;;12.68;;
21326;SDS011;10822;51.532;6.770;2023-04-16T02:49:03;21.50;;;12.52;;
21326;SDS011;10822;51.532;6.770;2023-04-16T02:51:29;23.75;;;13.00;;
21326;SDS011;10822;51.532;6.770;2023-04-16T02:53:57;23.73;;;13.23;;
21326;SDS011;10822;51.532;6.770;2023-04-16T02:56:23;24.27;;;12.73;;
21326;SDS011;10822;51.532;6.770;2023-04-16T02:58:49;24.25;;;11.70;;
21326;SDS011;10822;51.532;6.770;2023-04-16T03:01:15;23.10;;;12.25;;
21326;SDS011;10822;51.532;6.770;2023-04-16T03:03:42;23.85;;;12.15;;
21326;SDS011;10822;51.532;6.770;2023-04-16T03:06:07;22.95;;;12.48;;
21326;SDS011;10822;51.532;6.770;2023-04-16T03:08:33;24.58;;;12.35;;
21326;SDS011;10822;51.532;6.770;2023-04-16T03:10:59;26.20;;;12.90;;
21326;SDS011;10822;51.532;6.770;2023-04-16T03:13:25;22.60;;;12.52;;
21326;SDS011;10822;51.532;6.770;2023-04-16T03:15:51;25.55;;;13.18;;
21326;SDS011;10822;51.532;6.770;2023-04-16T03:18:17;24.27;;;13.32;;
21326;SDS011;10822;51.532;6.770;2023-04-16T03:20:43;23.75;;;12.68;;
21326;SDS011;10822;51.532;6.770;2023-04-16T03:23:09;24.60;;;14.20;;
21326;SDS011;10822;51.532;6.770;2023-04-16T03:25:35;25.52;;;13.60;;
21326;SDS011;10822;51.532;6.770;2023-04-16T03:28:04;23.42;;;13.18;;
21326;SDS011;10822;51.532;6.770;2023-04-16T03:30:30;19.45;;;12.02;;
21326;SDS011;10822;51.532;6.770;2023-04-16T03:32:56;28.50;;;13.82;;
21326;SDS011;10822;51.532;6.770;2023-04-16T03:35:22;25.80;;;13.75;;
21326;SDS011;10822;51.532;6.770;2023-04-16T03:37:48;27.15;;;12.55;;
21326;SDS011;10822;51.532;6.770;2023-04-16T03:40:14;23.48;;;12.93;;
21326;SDS011;10822;51.532;6.770;2023-04-16T03:42:40;26.80;;;13.43;;
21326;SDS011;10822;51.532;6.770;2023-04-16T03:45:06;32.90;;;15.45;;
21326;SDS011;10822;51.532;6.770;2023-04-16T03:47:33;31.13;;;14.65;;
21326;SDS011;10822;51.532;6.770;2023-04-16T03:49:59;26.65;;;13.88;;
21326;SDS011;10822;51.532;6.770;2023-04-16T03:52:25;30.20;;;13.90;;
21326;SDS011;10822;51.532;6.770;2023-04-16T03:54:52;30.15;;;13.68;;
21326;SDS011;10822;51.532;6.770;2023-04-16T03:57:18;28.10;;;15.18;;
21326;SDS011;10822;51.532;6.770;2023-04-16T03:59:44;31.85;;;14.60;;
21326;SDS011;10822;51.532;6.770;2023-04-16T04:02:10;31.73;;;15.70;;
21326;SDS011;10822;51.532;6.770;2023-04-16T04:04:36;29.73;;;15.52;;
21326;SDS011;10822;51.532;6.770;2023-04-16T04:07:02;37.05;;;16.83;;
21326;SDS011;10822;51.532;6.770;2023-04-16T04:09:28;33.95;;;15.57;;
21326;SDS011;10822;51.532;6.770;2023-04-16T04:11:54;34.65;;;18.00;;
21326;SDS011;10822;51.532;6.770;2023-04-16T04:14:20;30.50;;;15.60;;
21326;SDS011;10822;51.532;6.770;2023-04-16T04:16:46;32.25;;;16.52;;
21326;SDS011;10822;51.532;6.770;2023-04-16T04:19:12;33.20;;;17.15;;
21326;SDS011;10822;51.532;6.770;2023-04-16T04:21:37;35.00;;;16.85;;
21326;SDS011;10822;51.532;6.770;2023-04-16T04:24:03;33.45;;;16.75;;
21326;SDS011;10822;51.532;6.770;2023-04-16T04:26:30;32.35;;;17.92;;
21326;SDS011;10822;51.532;6.770;2023-04-16T04:28:55;30.65;;;17.20;;
21326;SDS011;10822;51.532;6.770;2023-04-16T04:31:21;34.80;;;18.58;;
21326;SDS011;10822;51.532;6.770;2023-04-16T04:33:47;30.70;;;16.13;;
21326;SDS011;10822;51.532;6.770;2023-04-16T04:36:13;38.08;;;17.90;;
21326;SDS011;10822;51.532;6.770;2023-04-16T04:38:40;33.95;;;16.63;;
21326;SDS011;10822;51.532;6.770;2023-04-16T04:41:05;35.85;;;19.27;;
21326;SDS011;10822;51.532;6.770;2023-04-16T04:43:31;34.80;;;17.15;;
21326;SDS011;10822;51.532;6.770;2023-04-16T04:45:57;31.63;;;16.05;;
21326;SDS011;10822;51.532;6.770;2023-04-16T04:48:23;37.38;;;18.95;;
21326;SDS011;10822;51.532;6.770;2023-04-16T04:50:50;35.78;;;17.90;;
21326;SDS011;10822;51.532;6.770;2023-04-16T04:53:17;32.38;;;17.70;;
21326;SDS011;10822;51.532;6.770;2023-04-16T04:55:43;34.47;;;17.88;;
21326;SDS011;10822;51.532;6.770;2023-04-16T04:58:09;34.67;;;17.67;;
21326;SDS011;10822;51.532;6.770;2023-04-16T05:00:35;31.38;;;16.40;;
21326;SDS011;10822;51.532;6.770;2023-04-16T05:03:02;32.92;;;18.17;;
21326;SDS011;10822;51.532;6.770;2023-04-16T05:05:28;31.55;;;17.15;;
21326;SDS011;10822;51.532;6.770;2023-04-16T05:07:54;36.92;;;18.55;;
21326;SDS011;10822;51.532;6.770;2023-04-16T05:10:20;35.97;;;18.55;;
21326;SDS011;10822;51.532;6.770;2023-04-16T05:12:46;36.90;;;18.60;;
21326;SDS011;10822;51.532;6.770;2023-04-16T05:15:12;35.25;;;17.77;;
21326;SDS011;10822;51.532;6.770;2023-04-16T05:17:38;33.17;;;18.23;;
21326;SDS011;10822;51.532;6.770;2023-04-16T05:20:05;33.88;;;18.25;;
21326;SDS011;10822;51.532;6.770;2023-04-16T05:22:31;36.85;;;19.98;;
21326;SDS011;10822;51.532;6.770;2023-04-16T05:24:57;34.70;;;18.40;;
21326;SDS011;10822;51.532;6.770;2023-04-16T05:27:23;35.63;;;19.23;;
21326;SDS011;10822;51.532;6.770;2023-04-16T05:29:49;41.28;;;20.73;;
21326;SDS011;10822;51.532;6.770;2023-04-16T05:32:15;39.20;;;19.70;;
21326;SDS011;10822;51.532;6.770;2023-04-16T05:34:41;36.30;;;19.27;;
21326;SDS011;10822;51.532;6.770;2023-04-16T05:37:07;38.05;;;19.90;;
21326;SDS011;10822;51.532;6.770;2023-04-16T05:39:33;37.83;;;19.48;;
21326;SDS011;10822;51.532;6.770;2023-04-16T05:41:59;38.17;;;19.75;;
21326;SDS011;10822;51.532;6.770;2023-04-16T05:44:25;38.63;;;20.60;;
21326;SDS011;10822;51.532;6.770;2023-04-16T05:46:51;37.67;;;19.95;;
21326;SDS011;10822;51.532;6.770;2023-04-16T05:49:17;33.83;;;18.15;;
21326;SDS011;10822;51.532;6.770;2023-04-16T05:51:43;37.00;;;19.98;;
21326;SDS011;10822;51.532;6.770;2023-04-16T05:54:09;39.50;;;19.65;;
21326;SDS011;10822;51.532;6.770;2023-04-16T05:56:35;35.80;;;18.50;;
21326;SDS011;10822;51.532;6.770;2023-04-16T05:59:01;37.40;;;19.77;;
21326;SDS011;10822;51.532;6.770;2023-04-16T06:01:27;32.67;;;18.20;;
21326;SDS011;10822;51.532;6.770;2023-04-16T06:03:53;37.53;;;19.95;;
21326;SDS011;10822;51.532;6.770;2023-04-16T06:06:19;31.50;;;17.10;;
21326;SDS011;10822;51.532;6.770;2023-04-16T06:08:45;34.58;;;18.52;;
21326;SDS011;10822;51.532;6.770;2023-04-16T06:11:11;31.00;;;16.90;;
21326;SDS011;10822;51.532;6.770;2023-04-16T06:13:37;35.45;;;17.77;;
21326;SDS011;10822;51.532;6.770;2023-04-16T06:16:03;29.40;;;17.13;;
21326;SDS011;10822;51.532;6.770;2023-04-16T06:18:30;31.08;;;17.75;;
21326;SDS011;10822;51.532;6.770;2023-04-16T06:20:56;31.25;;;17.05;;
21326;SDS011;10822;51.532;6.770;2023-04-16T06:23:23;31.98;;;17.15;;
21326;SDS011;10822;51.532;6.770;2023-04-16T06:25:49;29.38;;;16.10;;
21326;SDS011;10822;51.532;6.770;2023-04-16T06:28:15;29.83;;;17.05;;
21326;SDS011;10822;51.532;6.770;2023-04-16T06:30:41;29.83;;;16.73;;
21326;SDS011;10822;51.532;6.770;2023-04-16T06:33:07;31.15;;;16.85;;
21326;SDS011;10822;51.532;6.770;2023-04-16T06:35:33;31.73;;;17.33;;
21326;SDS011;10822;51.532;6.770;2023-04-16T06:37:59;32.55;;;16.98;;
21326;SDS011;10822;51.532;6.770;2023-04-16T06:40:25;33.50;;;17.55;;
21326;SDS011;10822;51.532;6.770;2023-04-16T06:42:52;28.85;;;16.65;;
21326;SDS011;10822;51.532;6.770;2023-04-16T06:45:18;29.13;;;17.52;;
21326;SDS011;10822;51.532;6.770;2023-04-16T06:47:44;31.95;;;17.77;;
21326;SDS011;10822;51.532;6.770;2023-04-16T06:50:10;32.08;;;18.13;;
21326;SDS011;10822;51.532;6.770;2023-04-16T06:52:36;32.70;;;17.92;;
21326;SDS011;10822;51.532;6.770;2023-04-16T06:55:02;32.58;;;17.63;;
21326;SDS011;10822;51.532;6.770;2023-04-16T06:57:28;34.78;;;18.08;;
21326;SDS011;10822;51.532;6.770;2023-04-16T06:59:54;32.35;;;18.13;;
21326;SDS011;10822;51.532;6.770;2023-04-16T07:02:20;33.35;;;17.40;;
21326;SDS011;10822;51.532;6.770;2023-04-16T07:04:46;30.98;;;17.65;;
21326;SDS011;10822;51.532;6.770;2023-04-16T07:07:12;31.45;;;17.77;;
21326;SDS011;10822;51.532;6.770;2023-04-16T07:09:38;31.17;;;18.00;;
21326;SDS011;10822;51.532;6.770;2023-04-16T07:12:04;30.83;;;17.15;;
21326;SDS011;10822;51.532;6.770;2023-04-16T07:14:31;29.30;;;17.60;;
21326;SDS011;10822;51.532;6.770;2023-04-16T07:16:57;27.70;;;17.42;;
21326;SDS011;10822;51.532;6.770;2023-04-16T07:19:23;33.03;;;17.45;;
21326;SDS011;10822;51.532;6.770;2023-04-16T07:21:49;30.05;;;18.20;;
21326;SDS011;10822;51.532;6.770;2023-04-16T07:24:15;31.63;;;18.42;;
21326;SDS011;10822;51.532;6.770;2023-04-16T07:26:41;31.42;;;18.25;;
21326;SDS011;10822;51.532;6.770;2023-04-16T07:29:07;31.13;;;17.50;;
21326;SDS011;10822;51.532;6.770;2023-04-16T07:31:33;25.73;;;17.48;;
21326;SDS011;10822;51.532;6.770;2023-04-16T07:33:59;27.77;;;17.98;;
21326;SDS011;10822;51.532;6.770;2023-04-16T07:36:25;30.35;;;17.23;;
21326;SDS011;10822;51.532;6.770;2023-04-16T07:38:52;29.60;;;17.27;;
21326;SDS011;10822;51.532;6.770;2023-04-16T07:41:18;27.85;;;18.02;;
21326;SDS011;10822;51.532;6.770;2023-04-16T07:43:44;30.25;;;17.60;;
21326;SDS011;10822;51.532;6.770;2023-04-16T07:46:10;32.95;;;18.17;;
21326;SDS011;10822;51.532;6.770;2023-04-16T07:48:36;26.95;;;16.67;;
21326;SDS011;10822;51.532;6.770;2023-04-16T07:51:02;26.77;;;16.88;;
21326;SDS011;10822;51.532;6.770;2023-04-16T07:53:28;26.70;;;16.60;;
21326;SDS011;10822;51.532;6.770;2023-04-16T07:55:54;31.02;;;18.65;;
21326;SDS011;10822;51.532;6.770;2023-04-16T07:58:20;29.00;;;17.27;;
21326;SDS011;10822;51.532;6.770;2023-04-16T08:00:46;31.73;;;18.25;;
21326;SDS011;10822;51.532;6.770;2023-04-16T08:03:12;32.92;;;17.70;;
21326;SDS011;10822;51.532;6.770;2023-04-16T08:05:39;27.17;;;17.90;;
21326;SDS011;10822;51.532;6.770;2023-04-16T08:08:05;29.63;;;16.38;;
21326;SDS011;10822;51.532;6.770;2023-04-16T08:10:32;28.63;;;17.67;;
21326;SDS011;10822;51.532;6.770;2023-04-16T08:12:59;29.25;;;17.05;;
21326;SDS011;10822;51.532;6.770;2023-04-16T08:15:25;26.27;;;17.02;;
21326;SDS011;10822;51.532;6.770;2023-04-16T08:17:51;27.38;;;17.48;;
21326;SDS011;10822;51.532;6.770;2023-04-16T08:20:17;25.25;;;16.63;;
21326;SDS011;10822;51.532;6.770;2023-04-16T08:22:44;27.15;;;17.48;;
21326;SDS011;10822;51.532;6.770;2023-04-16T08:25:10;22.23;;;15.15;;
21326;SDS011;10822;51.532;6.770;2023-04-16T08:27:36;23.45;;;14.88;;
21326;SDS011;10822;51.532;6.770;2023-04-16T08:30:02;26.83;;;16.50;;
21326;SDS011;10822;51.532;6.770;2023-04-16T08:32:28;23.05;;;15.57;;
21326;SDS011;10822;51.532;6.770;2023-04-16T08:34:54;22.48;;;15.45;;
21326;SDS011;10822;51.532;6.770;2023-04-16T08:37:21;26.23;;;17.13;;
21326;SDS011;10822;51.532;6.770;2023-04-16T08:39:47;25.73;;;15.57;;
21326;SDS011;10822;51.532;6.770;2023-04-16T08:42:17;26.33;;;16.30;;
21326;SDS011;10822;51.532;6.770;2023-04-16T08:44:47;21.45;;;14.77;;
21326;SDS011;10822;51.532;6.770;2023-04-16T08:47:14;24.27;;;14.70;;
21326;SDS011;10822;51.532;6.770;2023-04-16T08:49:43;24.92;;;15.77;;
21326;SDS011;10822;51.532;6.770;2023-04-16T08:52:13;21.88;;;14.93;;
21326;SDS011;10822;51.532;6.770;2023-04-16T08:57:11;22.70;;;15.38;;
21326;SDS011;10822;51.532;6.770;2023-04-16T08:59:41;22.38;;;15.00;;
21326;SDS011;10822;51.532;6.770;2023-04-16T09:02:11;21.25;;;14.30;;
21326;SDS011;10822;51.532;6.770;2023-04-16T09:04:37;21.80;;;15.18;;
21326;SDS011;10822;51.532;6.770;2023-04-16T09:07:04;22.17;;;14.63;;
21326;SDS011;10822;51.532;6.770;2023-04-16T09:09:32;21.77;;;14.20;;
21326;SDS011;10822;51.532;6.770;2023-04-16T09:11:58;25.05;;;16.30;;
21326;SDS011;10822;51.532;6.770;2023-04-16T09:14:24;25.13;;;15.32;;
21326;SDS011;10822;51.532;6.770;2023-04-16T09:16:50;20.27;;;13.45;;
21326;SDS011;10822;51.532;6.770;2023-04-16T09:19:18;22.02;;;14.13;;
21326;SDS011;10822;51.532;6.770;2023-04-16T09:21:45;17.88;;;12.90;;
21326;SDS011;10822;51.532;6.770;2023-04-16T09:24:11;19.42;;;13.55;;
21326;SDS011;10822;51.532;6.770;2023-04-16T09:26:37;18.30;;;12.40;;
21326;SDS011;10822;51.532;6.770;2023-04-16T09:29:03;17.70;;;12.13;;
21326;SDS011;10822;51.532;6.770;2023-04-16T09:31:29;17.90;;;12.73;;
21326;SDS011;10822;51.532;6.770;2023-04-16T09:36:27;17.85;;;12.68;;
21326;SDS011;10822;51.532;6.770;2023-04-16T09:38:53;20.10;;;13.68;;
21326;SDS011;10822;51.532;6.770;2023-04-16T09:41:26;22.30;;;13.50;;
21326;SDS011;10822;51.532;6.770;2023-04-16T09:43:53;23.52;;;14.52;;
21326;SDS011;10822;51.532;6.770;2023-04-16T09:46:20;25.27;;;14.15;;
21326;SDS011;10822;51.532;6.770;2023-04-16T09:48:46;20.55;;;13.73;;
21326;SDS011;10822;51.532;6.770;2023-04-16T09:51:12;19.85;;;14.00;;
21326;SDS011;10822;51.532;6.770;2023-04-16T09:53:38;18.95;;;13.30;;
21326;SDS011;10822;51.532;6.770;2023-04-16T09:56:04;19.58;;;13.52;;
21326;SDS011;10822;51.532;6.770;2023-04-16T09:58:31;16.67;;;11.98;;
21326;SDS011;10822;51.532;6.770;2023-04-16T10:03:30;18.35;;;11.88;;
21326;SDS011;10822;51.532;6.770;2023-04-16T10:08:31;16.73;;;11.60;;
21326;SDS011;10822;51.532;6.770;2023-04-16T10:10:57;18.92;;;12.27;;
21326;SDS011;10822;51.532;6.770;2023-04-16T10:13:23;18.63;;;12.85;;
21326;SDS011;10822;51.532;6.770;2023-04-16T10:15:52;16.90;;;11.65;;
21326;SDS011;10822;51.532;6.770;2023-04-16T10:18:20;17.77;;;12.02;;
21326;SDS011;10822;51.532;6.770;2023-04-16T10:20:47;17.10;;;11.73;;
21326;SDS011;10822;51.532;6.770;2023-04-16T10:23:13;14.95;;;11.25;;
21326;SDS011;10822;51.532;6.770;2023-04-16T10:25:39;19.35;;;11.05;;
21326;SDS011;10822;51.532;6.770;2023-04-16T10:28:07;14.82;;;11.10;;
21326;SDS011;10822;51.532;6.770;2023-04-16T10:30:34;16.00;;;11.10;;
21326;SDS011;10822;51.532;6.770;2023-04-16T10:33:01;15.48;;;10.55;;
21326;SDS011;10822;51.532;6.770;2023-04-16T10:35:28;13.13;;;10.63;;
21326;SDS011;10822;51.532;6.770;2023-04-16T10:38:15;12.73;;;10.07;;
21326;SDS011;10822;51.532;6.770;2023-04-16T10:40:43;14.48;;;10.63;;
21326;SDS011;10822;51.532;6.770;2023-04-16T10:43:10;16.55;;;11.77;;
21326;SDS011;10822;51.532;6.770;2023-04-16T10:45:41;18.40;;;13.05;;
21326;SDS011;10822;51.532;6.770;2023-04-16T10:48:07;17.70;;;12.70;;
21326;SDS011;10822;51.532;6.770;2023-04-16T10:50:37;20.17;;;12.85;;
21326;SDS011;10822;51.532;6.770;2023-04-16T10:53:19;18.67;;;12.75;;
21326;SDS011;10822;51.532;6.770;2023-04-16T10:56:31;16.90;;;10.97;;
21326;SDS011;10822;51.532;6.770;2023-04-16T10:58:33;17.30;;;11.30;;
21326;SDS011;10822;51.532;6.770;2023-04-16T11:01:00;16.48;;;11.98;;
21326;SDS011;10822;51.532;6.770;2023-04-16T11:03:31;16.45;;;11.43;;
21326;SDS011;10822;51.532;6.770;2023-04-16T11:08:37;13.55;;;10.70;;
21326;SDS011;10822;51.532;6.770;2023-04-16T11:11:03;15.30;;;11.25;;
21326;SDS011;10822;51.532;6.770;2023-04-16T11:13:30;13.20;;;10.23;;
21326;SDS011;10822;51.532;6.770;2023-04-16T11:15:56;14.07;;;10.15;;
21326;SDS011;10822;51.532;6.770;2023-04-16T11:18:23;14.00;;;10.00;;
21326;SDS011;10822;51.532;6.770;2023-04-16T11:20:49;14.15;;;10.43;;
21326;SDS011;10822;51.532;6.770;2023-04-16T11:23:15;16.08;;;11.00;;
21326;SDS011;10822;51.532;6.770;2023-04-16T11:25:41;15.45;;;11.23;;
21326;SDS011;10822;51.532;6.770;2023-04-16T11:28:07;15.45;;;10.85;;
21326;SDS011;10822;51.532;6.770;2023-04-16T11:30:34;14.68;;;10.52;;
21326;SDS011;10822;51.532;6.770;2023-04-16T11:33:04;14.55;;;10.32;;
21326;SDS011;10822;51.532;6.770;2023-04-16T11:35:30;14.93;;;10.35;;
21326;SDS011;10822;51.532;6.770;2023-04-16T11:37:56;13.38;;;10.05;;
21326;SDS011;10822;51.532;6.770;2023-04-16T11:40:22;13.02;;;9.90;;
21326;SDS011;10822;51.532;6.770;2023-04-16T11:42:49;12.93;;;10.05;;
21326;SDS011;10822;51.532;6.770;2023-04-16T11:45:15;12.55;;;9.52;;
21326;SDS011;10822;51.532;6.770;2023-04-16T11:52:45;13.38;;;9.77;;
21326;SDS011;10822;51.532;6.770;2023-04-16T11:55:12;12.52;;;9.73;;
21326;SDS011;10822;51.532;6.770;2023-04-16T11:57:38;12.95;;;9.93;;
21326;SDS011;10822;51.532;6.770;2023-04-16T12:00:04;14.02;;;9.55;;
21326;SDS011;10822;51.532;6.770;2023-04-16T12:02:44;14.95;;;10.70;;
21326;SDS011;10822;51.532;6.770;2023-04-16T12:07:56;15.73;;;10.20;;
21326;SDS011;10822;51.532;6.770;2023-04-16T12:10:23;15.77;;;11.05;;
21326;SDS011;10822;51.532;6.770;2023-04-16T12:12:49;16.33;;;11.48;;
21326;SDS011;10822;51.532;6.770;2023-04-16T12:15:15;13.77;;;10.60;;
21326;SDS011;10822;51.532;6.770;2023-04-16T12:17:41;14.50;;;10.00;;
21326;SDS011;10822;51.532;6.770;2023-04-16T12:20:11;13.95;;;10.73;;
21326;SDS011;10822;51.532;6.770;2023-04-16T12:22:38;14.05;;;10.93;;
21326;SDS011;10822;51.532;6.770;2023-04-16T12:25:05;14.80;;;10.60;;
21326;SDS011;10822;51.532;6.770;2023-04-16T12:30:07;17.98;;;11.23;;
21326;SDS011;10822;51.532;6.770;2023-04-16T12:32:33;14.30;;;11.23;;
21326;SDS011;10822;51.532;6.770;2023-04-16T12:34:59;15.45;;;11.00;;
21326;SDS011;10822;51.532;6.770;2023-04-16T12:37:25;13.85;;;11.13;;
21326;SDS011;10822;51.532;6.770;2023-04-16T12:39:52;14.75;;;10.55;;
21326;SDS011;10822;51.532;6.770;2023-04-16T12:42:18;14.57;;;11.13;;
21326;SDS011;10822;51.532;6.770;2023-04-16T12:44:44;15.90;;;11.55;;
21326;SDS011;10822;51.532;6.770;2023-04-16T12:47:10;14.65;;;11.43;;
21326;SDS011;10822;51.532;6.770;2023-04-16T12:49:36;17.35;;;11.20;;
21326;SDS011;10822;51.532;6.770;2023-04-16T12:52:02;14.55;;;10.48;;
21326;SDS011;10822;51.532;6.770;2023-04-16T12:54:28;14.73;;;11.30;;
21326;SDS011;10822;51.532;6.770;2023-04-16T12:56:58;15.50;;;11.35;;
21326;SDS011;10822;51.532;6.770;2023-04-16T12:59:24;15.90;;;12.00;;
21326;SDS011;10822;51.532;6.770;2023-04-16T13:01:50;16.42;;;11.60;;
21326;SDS011;10822;51.532;6.770;2023-04-16T13:04:16;17.27;;;11.93;;
21326;SDS011;10822;51.532;6.770;2023-04-16T13:06:43;15.88;;;11.30;;
21326;SDS011;10822;51.532;6.770;2023-04-16T13:09:09;13.52;;;10.57;;
21326;SDS011;10822;51.532;6.770;2023-04-16T13:11:35;13.50;;;10.93;;
21326;SDS011;10822;51.532;6.770;2023-04-16T13:14:01;15.70;;;11.45;;
21326;SDS011;10822;51.532;6.770;2023-04-16T13:16:27;15.52;;;11.32;;
21326;SDS011;10822;51.532;6.770;2023-04-16T13:18:53;14.98;;;11.05;;
21326;SDS011;10822;51.532;6.770;2023-04-16T13:21:19;13.70;;;11.30;;
21326;SDS011;10822;51.532;6.770;2023-04-16T13:23:46;13.45;;;10.48;;
21326;SDS011;10822;51.532;6.770;2023-04-16T13:26:12;16.75;;;12.63;;
21326;SDS011;10822;51.532;6.770;2023-04-16T13:28:39;12.88;;;10.82;;
21326;SDS011;10822;51.532;6.770;2023-04-16T13:31:05;13.05;;;10.52;;
21326;SDS011;10822;51.532;6.770;2023-04-16T13:33:31;14.63;;;10.48;;
21326;SDS011;10822;51.532;6.770;2023-04-16T13:35:57;15.18;;;10.52;;
21326;SDS011;10822;51.532;6.770;2023-04-16T13:38:23;15.77;;;11.75;;
21326;SDS011;10822;51.532;6.770;2023-04-16T13:40:49;14.90;;;11.20;;
21326;SDS011;10822;51.532;6.770;2023-04-16T13:43:15;13.88;;;11.35;;
21326;SDS011;10822;51.532;6.770;2023-04-16T13:45:43;15.13;;;10.80;;
21326;SDS011;10822;51.532;6.770;2023-04-16T13:48:09;14.80;;;11.15;;
21326;SDS011;10822;51.532;6.770;2023-04-16T13:50:35;15.38;;;11.15;;
21326;SDS011;10822;51.532;6.770;2023-04-16T13:53:01;14.57;;;10.73;;
21326;SDS011;10822;51.532;6.770;2023-04-16T13:55:27;13.60;;;9.93;;
21326;SDS011;10822;51.532;6.770;2023-04-16T13:57:55;14.27;;;10.65;;
21326;SDS011;10822;51.532;6.770;2023-04-16T14:00:21;14.23;;;11.02;;
21326;SDS011;10822;51.532;6.770;2023-04-16T14:02:47;13.45;;;9.55;;
21326;SDS011;10822;51.532;6.770;2023-04-16T14:05:13;13.82;;;10.32;;
21326;SDS011;10822;51.532;6.770;2023-04-16T14:07:39;12.48;;;10.00;;
21326;SDS011;10822;51.532;6.770;2023-04-16T14:10:05;11.35;;;9.13;;
21326;SDS011;10822;51.532;6.770;2023-04-16T14:12:32;12.77;;;9.73;;
21326;SDS011;10822;51.532;6.770;2023-04-16T14:14:58;13.13;;;9.70;;
21326;SDS011;10822;51.532;6.770;2023-04-16T14:17:24;13.90;;;9.75;;
21326;SDS011;10822;51.532;6.770;2023-04-16T14:19:50;12.68;;;9.35;;
21326;SDS011;10822;51.532;6.770;2023-04-16T14:22:16;13.18;;;9.55;;
21326;SDS011;10822;51.532;6.770;2023-04-16T14:24:42;11.50;;;8.95;;
21326;SDS011;10822;51.532;6.770;2023-04-16T14:27:08;14.32;;;9.75;;
21326;SDS011;10822;51.532;6.770;2023-04-16T14:29:35;12.57;;;9.05;;
21326;SDS011;10822;51.532;6.770;2023-04-16T14:32:01;15.23;;;8.80;;
21326;SDS011;10822;51.532;6.770;2023-04-16T14:34:27;13.52;;;9.13;;
21326;SDS011;10822;51.532;6.770;2023-04-16T14:36:53;12.05;;;9.23;;
21326;SDS011;10822;51.532;6.770;2023-04-16T14:39:19;11.88;;;9.52;;
21326;SDS011;10822;51.532;6.770;2023-04-16T14:41:45;13.55;;;9.65;;